カシュガル の空港の天気 - METARとTAF

カシュガル空港 ( ZWSH / KHG ) - 中国 新疆ウイグル自治区カシュガル市
飛行場実況気象(Metar)
観測時間07/07 21:00 CST (07/07 13:00 UTC)
風向・風速東 4m/s
視程10km以上
天気現象
なし
気温31℃
湿度14%
気圧1009hPa
METARZWSH 071300Z 10004MPS CAVOK 31/M00 Q1009 NOSIG
過去の天気等 Google飛行場航空写真 Wunderground天気予報

過去48時間のMETAR

飛行場予報(TAF)
発表時間: 7/07 17:06 CST (7/07 09:06 UTC)
予報対象時間: 7日20時 CST ~ 8日20時 CST
風向・風速東南東 4m/s
視程10km以上
少しの積乱雲 雲底高度 1010m
7日23時 CST ~ 7日24時 CST に徐々に
風向・風速北西 5m/s
8日11時 CST ~ 8日12時 CST に徐々に
風向・風速東南東 4m/s
TAF ZWSH 070906Z 0712/0812 12004MPS 9999 FEW033CB TX34/0809Z TN20/0800Z
BECMG 0715/0716 32005MPS
BECMG 0803/0804 12004MPS